Time;durP1;ratioP1;P1;durP2;ratioP2;P2;SDS_P1;SDS_P2;PMS_P1;PMS_P2;Temp;Humidity;BMP_temperature;BMP_pressure;BME280_temperature;BME280_humidity;BME280_pressure;Samples;Min_cycle;Max_cycle;Signal;HPM_P1;HPM_P2
2023/04/24 00:02:13;;;;;;;1.42;1.33;;;10.90;99.90;;;;;;5003973;28;20048;-76
2023/04/24 00:04:41;;;;;;;2.40;1.63;;;10.90;99.90;;;;;;4988626;28;20046;-77
2023/04/24 00:07:07;;;;;;;3.60;1.63;;;10.90;99.90;;;;;;4984251;28;20042;-76
2023/04/24 00:09:35;;;;;;;4.22;2.00;;;10.90;99.90;;;;;;4984402;28;20444;-77
2023/04/24 00:12:04;;;;;;;1.90;1.60;;;10.90;99.90;;;;;;4988875;28;20053;-77
2023/04/24 00:14:30;;;;;;;4.55;1.73;;;11.00;99.90;;;;;;4998050;28;20567;-78
2023/04/24 00:16:56;;;;;;;3.22;2.40;;;10.90;99.90;;;;;;5004853;28;20046;-77
2023/04/24 00:19:21;;;;;;;3.85;2.28;;;10.90;99.90;;;;;;4995764;28;20416;-77
2023/04/24 00:21:49;;;;;;;2.67;1.90;;;10.90;99.90;;;;;;4994007;28;20607;-77
2023/04/24 00:24:16;;;;;;;3.70;2.22;;;10.90;99.90;;;;;;5003226;28;20463;-77
2023/04/24 00:26:42;;;;;;;2.85;1.48;;;10.90;99.90;;;;;;4986799;28;20050;-77
2023/04/24 00:29:07;;;;;;;3.05;2.10;;;10.90;99.90;;;;;;5003605;28;20082;-77
2023/04/24 00:31:34;;;;;;;2.90;1.60;;;10.90;99.90;;;;;;4990105;28;20100;-77
2023/04/24 00:34:01;;;;;;;3.67;2.65;;;10.90;99.90;;;;;;5004641;28;20050;-77
2023/04/24 00:36:27;;;;;;;3.85;1.88;;;10.90;99.90;;;;;;4988469;28;20042;-77
2023/04/24 00:38:53;;;;;;;4.40;2.15;;;10.90;99.90;;;;;;4982947;28;20513;-77
2023/04/24 00:41:19;;;;;;;2.45;1.50;;;10.90;99.90;;;;;;4992924;28;20092;-77
2023/04/24 00:43:45;;;;;;;3.13;2.17;;;10.90;99.90;;;;;;4989351;28;20041;-77
2023/04/24 00:46:12;;;;;;;4.05;2.60;;;10.90;99.90;;;;;;4989718;28;20129;-77
2023/04/24 00:48:39;;;;;;;3.25;2.47;;;10.90;99.90;;;;;;4998007;28;20409;-77
2023/04/24 00:51:05;;;;;;;3.17;1.92;;;10.90;99.90;;;;;;4984561;28;20396;-77
2023/04/24 00:53:31;;;;;;;7.70;2.88;;;10.90;99.90;;;;;;4995300;28;20053;-77
2023/04/24 00:55:57;;;;;;;3.25;2.20;;;10.90;99.90;;;;;;4985058;28;20401;-77
2023/04/24 00:58:23;;;;;;;2.83;2.00;;;10.90;99.90;;;;;;4994429;28;20489;-77
2023/04/24 01:00:52;;;;;;;4.55;2.35;;;10.90;99.90;;;;;;4983069;28;20042;-77
2023/04/24 01:03:20;;;;;;;5.07;2.88;;;10.90;99.90;;;;;;4999975;28;20046;-77
2023/04/24 01:05:47;;;;;;;4.40;2.35;;;10.90;99.90;;;;;;5002268;28;20192;-77
2023/04/24 01:08:14;;;;;;;4.30;2.50;;;11.00;99.90;;;;;;5004382;28;20144;-77
2023/04/24 01:10:41;;;;;;;4.40;2.67;;;10.90;99.90;;;;;;5000861;28;20041;-77
2023/04/24 01:13:08;;;;;;;3.35;2.58;;;10.90;99.90;;;;;;4987893;28;20887;-77
2023/04/24 01:15:34;;;;;;;4.78;2.25;;;10.90;99.90;;;;;;4998917;28;20050;-77
2023/04/24 01:18:00;;;;;;;3.85;2.50;;;10.90;99.90;;;;;;4983177;28;20409;-77
2023/04/24 01:20:26;;;;;;;3.30;2.85;;;10.90;99.90;;;;;;4984206;28;20047;-77
2023/04/24 01:22:52;;;;;;;5.13;2.72;;;10.90;99.90;;;;;;4993495;28;20113;-77
2023/04/24 01:25:18;;;;;;;4.75;1.98;;;10.90;99.90;;;;;;4983423;28;20046;-76
2023/04/24 01:27:44;;;;;;;4.13;2.47;;;10.90;99.90;;;;;;4989126;28;20046;-77
2023/04/24 01:30:10;;;;;;;5.15;2.72;;;10.90;99.90;;;;;;4989646;28;20077;-76
2023/04/24 01:32:37;;;;;;;3.65;2.38;;;10.90;99.90;;;;;;4983712;28;20054;-77
2023/04/24 01:35:03;;;;;;;4.28;2.70;;;10.90;99.90;;;;;;5002930;28;20413;-76
2023/04/24 01:37:29;;;;;;;2.72;2.25;;;10.90;99.90;;;;;;4999259;28;20030;-77
2023/04/24 01:39:54;;;;;;;4.97;2.70;;;10.90;99.90;;;;;;4993590;28;20042;-77
2023/04/24 01:42:21;;;;;;;4.28;2.60;;;10.90;99.90;;;;;;4984654;28;20093;-77
2023/04/24 01:44:47;;;;;;;4.20;2.90;;;10.90;99.90;;;;;;4997882;28;20412;-77
2023/04/24 01:47:13;;;;;;;6.97;3.60;;;10.90;99.90;;;;;;4999060;28;20038;-76
2023/04/24 01:49:39;;;;;;;4.45;3.80;;;10.90;99.90;;;;;;4983940;28;20081;-77
2023/04/24 01:52:05;;;;;;;3.00;2.30;;;10.90;99.90;;;;;;5002852;28;20050;-77
2023/04/24 01:54:30;;;;;;;6.75;2.53;;;10.90;99.90;;;;;;4988314;28;20097;-77
2023/04/24 01:56:56;;;;;;;5.13;2.90;;;10.90;99.90;;;;;;4984083;28;20243;-76
2023/04/24 01:59:23;;;;;;;5.30;2.30;;;10.90;99.90;;;;;;4995111;28;20076;-77
2023/04/24 02:01:48;;;;;;;3.63;2.10;;;10.90;99.90;;;;;;4983668;28;20043;-76
2023/04/24 02:04:15;;;;;;;4.10;2.60;;;10.90;99.90;;;;;;4998793;28;20147;-77
2023/04/24 02:06:40;;;;;;;3.15;1.92;;;10.90;99.90;;;;;;5007042;28;20555;-76
2023/04/24 02:09:06;;;;;;;6.30;3.28;;;10.90;99.90;;;;;;5005162;28;20054;-76
2023/04/24 02:11:32;;;;;;;2.92;2.05;;;10.90;99.90;;;;;;5006385;28;20320;-77
2023/04/24 02:13:58;;;;;;;3.15;2.00;;;10.90;99.90;;;;;;4996349;28;20050;-76
2023/04/24 02:16:23;;;;;;;3.88;2.10;;;10.90;99.90;;;;;;5000459;28;20185;-77
2023/04/24 02:18:49;;;;;;;5.68;2.25;;;10.90;99.90;;;;;;5006436;28;20499;-77
2023/04/24 02:21:14;;;;;;;5.72;2.60;;;10.90;99.90;;;;;;4996211;28;20065;-77
2023/04/24 02:23:40;;;;;;;5.22;2.88;;;10.90;99.90;;;;;;5003702;28;20493;-77
2023/04/24 02:26:06;;;;;;;3.95;2.45;;;10.90;99.90;;;;;;5007009;28;20085;-77
2023/04/24 02:28:32;;;;;;;3.00;2.45;;;10.90;99.90;;;;;;4979609;28;20542;-77
2023/04/24 02:30:58;;;;;;;6.15;3.03;;;10.90;99.90;;;;;;5004057;28;20049;-76
2023/04/24 02:33:23;;;;;;;3.25;2.13;;;10.90;99.90;;;;;;5003901;28;20421;-77
2023/04/24 02:35:49;;;;;;;4.45;2.30;;;10.90;99.90;;;;;;4975678;28;20038;-77
2023/04/24 02:38:15;;;;;;;1.75;1.00;;;10.80;99.90;;;;;;5004961;28;20121;-77
2023/04/24 02:40:40;;;;;;;3.13;1.20;;;10.80;99.90;;;;;;5000520;28;20041;-76
2023/04/24 02:43:06;;;;;;;1.50;1.40;;;10.70;99.90;;;;;;4988390;28;20046;-77
2023/04/24 02:45:34;;;;;;;2.38;1.52;;;10.70;99.90;;;;;;4986672;28;20050;-76
2023/04/24 02:47:59;;;;;;;1.52;1.23;;;10.70;99.90;;;;;;4994783;28;20088;-76
2023/04/24 02:50:25;;;;;;;1.10;1.05;;;10.60;99.90;;;;;;5006270;28;20484;-77
2023/04/24 02:52:51;;;;;;;2.05;0.98;;;10.60;99.90;;;;;;5006677;28;20041;-76
2023/04/24 02:55:16;;;;;;;1.48;0.80;;;10.60;99.90;;;;;;4986566;28;20050;-77
2023/04/24 02:57:42;;;;;;;1.10;0.55;;;10.60;99.90;;;;;;4986663;28;20121;-76
2023/04/24 03:00:09;;;;;;;1.13;0.98;;;10.60;99.90;;;;;;4986367;28;20050;-76
2023/04/24 03:02:34;;;;;;;1.20;0.80;;;10.50;99.90;;;;;;4996454;28;20046;-77
2023/04/24 03:05:00;;;;;;;1.30;1.05;;;10.50;99.90;;;;;;4987370;28;20065;-76
2023/04/24 03:07:25;;;;;;;1.70;1.23;;;10.50;99.90;;;;;;4984906;28;20402;-76
2023/04/24 03:09:51;;;;;;;2.00;1.00;;;10.50;99.90;;;;;;4968513;28;20038;-76
2023/04/24 03:12:17;;;;;;;1.48;1.13;;;10.50;99.90;;;;;;4985420;28;20054;-77
2023/04/24 03:14:43;;;;;;;0.82;0.70;;;10.50;99.90;;;;;;4998468;28;20065;-76
2023/04/24 03:17:09;;;;;;;0.65;0.65;;;10.50;99.90;;;;;;4989175;28;20050;-76
2023/04/24 03:19:34;;;;;;;1.92;0.65;;;10.40;99.90;;;;;;4985127;28;20042;-76
2023/04/24 03:22:02;;;;;;;0.63;0.35;;;10.40;99.90;;;;;;4986550;28;20049;-77
2023/04/24 03:24:28;;;;;;;0.75;0.50;;;10.40;99.90;;;;;;4995001;28;20045;-76
2023/04/24 03:26:54;;;;;;;0.60;0.60;;;10.40;99.90;;;;;;5005160;28;20042;-76
2023/04/24 03:29:19;;;;;;;0.70;0.70;;;10.40;99.90;;;;;;5005086;28;20496;-77
2023/04/24 03:31:45;;;;;;;1.67;0.85;;;10.40;99.90;;;;;;5004163;28;20050;-76
2023/04/24 03:34:10;;;;;;;3.58;1.02;;;10.40;99.90;;;;;;4995564;28;20054;-76
2023/04/24 03:36:36;;;;;;;4.03;1.38;;;10.40;99.90;;;;;;4984940;28;20397;-77
2023/04/24 03:39:01;;;;;;;1.38;1.00;;;10.40;99.90;;;;;;4984360;28;20137;-77
2023/04/24 03:41:27;;;;;;;2.22;1.40;;;10.40;99.90;;;;;;4984215;28;20058;-77
2023/04/24 03:43:53;;;;;;;5.75;1.48;;;10.40;99.90;;;;;;4992392;28;20046;-77
2023/04/24 03:46:18;;;;;;;3.17;1.30;;;10.30;99.90;;;;;;5005366;28;20049;-77
2023/04/24 03:48:44;;;;;;;1.10;0.90;;;10.30;99.90;;;;;;4988826;28;20944;-76
2023/04/24 03:51:09;;;;;;;3.60;1.08;;;10.30;99.90;;;;;;4986105;28;20042;-77
2023/04/24 03:53:35;;;;;;;3.42;1.52;;;10.30;99.90;;;;;;4985498;28;20053;-77
2023/04/24 03:56:01;;;;;;;1.92;1.08;;;10.30;99.90;;;;;;5001523;28;20537;-77
2023/04/24 03:58:26;;;;;;;1.50;1.33;;;10.20;99.90;;;;;;4994083;28;20042;-77
2023/04/24 04:00:52;;;;;;;2.83;1.08;;;10.20;99.90;;;;;;5005523;28;20059;-76
2023/04/24 04:03:17;;;;;;;3.47;1.40;;;10.20;99.90;;;;;;5003220;28;20045;-76
2023/04/24 04:05:43;;;;;;;1.52;1.40;;;10.20;99.90;;;;;;5002962;28;20048;-76
2023/04/24 04:08:09;;;;;;;3.92;1.23;;;10.20;99.90;;;;;;5004636;28;20480;-77
2023/04/24 04:10:34;;;;;;;1.05;0.88;;;10.20;99.90;;;;;;5003576;28;20157;-76
2023/04/24 04:13:00;;;;;;;3.30;0.98;;;10.20;99.90;;;;;;4998784;28;20038;-76
2023/04/24 04:15:25;;;;;;;1.70;1.52;;;10.10;99.90;;;;;;4984355;28;20066;-76
2023/04/24 04:17:51;;;;;;;3.78;2.13;;;10.10;99.90;;;;;;4990232;28;20125;-76
2023/04/24 04:20:17;;;;;;;3.60;1.25;;;10.10;99.90;;;;;;4992128;28;20120;-77
2023/04/24 04:22:42;;;;;;;3.95;1.98;;;10.10;99.90;;;;;;4984014;28;20382;-76
2023/04/24 04:25:08;;;;;;;1.80;1.27;;;10.10;99.90;;;;;;4985039;28;20090;-76
2023/04/24 04:27:35;;;;;;;3.35;1.52;;;10.10;99.90;;;;;;4997225;28;20093;-76
2023/04/24 04:30:04;;;;;;;6.40;2.10;;;10.00;99.90;;;;;;4995654;28;20053;-76
2023/04/24 04:32:33;;;;;;;1.13;1.00;;;10.10;99.90;;;;;;4985168;28;20402;-76
2023/04/24 04:35:02;;;;;;;4.28;1.52;;;10.10;99.90;;;;;;4986112;28;20125;-76
2023/04/24 04:37:34;;;;;;;1.63;1.23;;;10.00;99.90;;;;;;4967838;28;20030;-77
2023/04/24 04:40:01;;;;;;;1.27;0.95;;;10.00;99.90;;;;;;4984474;28;20409;-76
2023/04/24 04:42:28;;;;;;;0.85;0.85;;;10.00;99.90;;;;;;4984257;28;20050;-77
2023/04/24 04:44:53;;;;;;;0.52;0.50;;;10.00;99.90;;;;;;5002303;28;20068;-75
2023/04/24 04:47:23;;;;;;;1.38;1.23;;;10.00;99.90;;;;;;4989546;28;20552;-76
2023/04/24 04:49:48;;;;;;;1.10;0.63;;;10.00;99.90;;;;;;4985623;28;20038;-75
2023/04/24 04:52:14;;;;;;;1.20;1.15;;;9.90;99.90;;;;;;4984868;28;20065;-76
2023/04/24 04:54:40;;;;;;;2.35;1.85;;;9.90;99.90;;;;;;4983259;28;20455;-76
2023/04/24 04:57:06;;;;;;;3.22;1.63;;;9.90;99.90;;;;;;4985722;28;20424;-76
2023/04/24 04:59:31;;;;;;;2.55;1.45;;;10.00;99.90;;;;;;4986880;28;20038;-76
2023/04/24 05:01:57;;;;;;;3.42;2.10;;;9.90;99.90;;;;;;4993826;28;20445;-76
2023/04/24 05:04:22;;;;;;;2.95;2.20;;;9.90;99.90;;;;;;4986234;28;20042;-76
2023/04/24 05:06:51;;;;;;;3.45;2.05;;;9.90;99.90;;;;;;4995896;28;20044;-76
2023/04/24 05:09:19;;;;;;;3.13;1.85;;;9.90;99.90;;;;;;4999790;28;20049;-76
2023/04/24 05:11:45;;;;;;;2.35;1.70;;;9.90;99.90;;;;;;5002333;28;20091;-76
2023/04/24 05:14:12;;;;;;;2.40;1.85;;;9.90;99.90;;;;;;4978905;28;20054;-75
2023/04/24 05:16:38;;;;;;;1.85;1.48;;;9.90;99.90;;;;;;5003035;28;20144;-75
2023/04/24 05:19:03;;;;;;;2.67;1.27;;;9.90;99.90;;;;;;5003370;28;20081;-75
2023/04/24 05:21:29;;;;;;;2.67;1.67;;;9.90;99.90;;;;;;5002567;28;20058;-75
2023/04/24 05:23:55;;;;;;;3.00;1.77;;;9.90;99.90;;;;;;5001243;28;20081;-75
2023/04/24 05:26:20;;;;;;;1.92;1.52;;;9.90;99.90;;;;;;4984704;28;20031;-74
2023/04/24 05:28:46;;;;;;;1.35;1.00;;;9.80;99.90;;;;;;4993452;28;20100;-75
2023/04/24 05:31:12;;;;;;;1.80;1.10;;;9.90;99.90;;;;;;4986944;28;20093;-74
2023/04/24 05:33:38;;;;;;;1.35;0.80;;;9.80;99.90;;;;;;4987994;28;20038;-74
2023/04/24 05:36:05;;;;;;;1.10;0.88;;;9.80;99.90;;;;;;5002500;28;20049;-75
2023/04/24 05:38:30;;;;;;;1.42;0.93;;;9.80;99.90;;;;;;4986904;28;20041;-75
2023/04/24 05:40:56;;;;;;;2.95;1.45;;;9.80;99.90;;;;;;5003825;28;20045;-77
2023/04/24 05:43:22;;;;;;;1.52;0.98;;;9.80;99.90;;;;;;4992687;28;20042;-75
2023/04/24 05:45:47;;;;;;;2.58;1.25;;;9.80;99.90;;;;;;4996896;28;20041;-74
2023/04/24 05:48:13;;;;;;;1.25;1.20;;;9.80;99.90;;;;;;4991289;28;20104;-75
2023/04/24 05:50:38;;;;;;;4.88;1.00;;;9.80;99.90;;;;;;4989751;28;20041;-76
2023/04/24 05:53:04;;;;;;;2.13;1.13;;;9.80;99.90;;;;;;5005413;28;20651;-75
2023/04/24 05:55:30;;;;;;;1.70;0.80;;;9.80;99.90;;;;;;5007023;28;20124;-75
2023/04/24 05:57:56;;;;;;;3.65;0.68;;;9.80;99.90;;;;;;5003636;28;20053;-75
2023/04/24 06:00:22;;;;;;;2.92;0.60;;;9.80;99.90;;;;;;4999856;28;20042;-75
2023/04/24 06:02:47;;;;;;;1.35;0.82;;;9.80;99.90;;;;;;4994430;28;20107;-74
2023/04/24 06:05:13;;;;;;;0.95;0.80;;;9.80;99.90;;;;;;5006169;28;20057;-75
2023/04/24 06:07:38;;;;;;;2.53;0.95;;;9.70;99.90;;;;;;4991860;28;20042;-75
2023/04/24 06:10:05;;;;;;;1.92;1.48;;;9.80;99.90;;;;;;4987250;28;20049;-75
2023/04/24 06:12:31;;;;;;;0.52;0.40;;;9.70;99.90;;;;;;5007007;28;20057;-74
2023/04/24 06:14:56;;;;;;;0.50;0.50;;;9.70;99.90;;;;;;5004875;28;20057;-75
2023/04/24 06:17:22;;;;;;;1.27;0.30;;;9.70;99.90;;;;;;4995873;28;20046;-75
2023/04/24 06:19:47;;;;;;;0.43;0.40;;;9.70;99.90;;;;;;4992438;28;20050;-74
2023/04/24 06:22:13;;;;;;;1.55;1.33;;;9.80;99.90;;;;;;4986317;28;20485;-74
2023/04/24 06:24:42;;;;;;;0.85;0.50;;;9.70;99.90;;;;;;4985535;28;20054;-74
2023/04/24 06:27:07;;;;;;;0.93;0.55;;;9.70;99.90;;;;;;4997234;28;20158;-75
2023/04/24 06:29:33;;;;;;;0.68;0.63;;;9.60;99.90;;;;;;4984595;28;20473;-74
2023/04/24 06:31:59;;;;;;;2.78;1.23;;;9.60;99.90;;;;;;4993630;28;20511;-75
2023/04/24 06:34:25;;;;;;;1.40;1.27;;;9.60;99.90;;;;;;4996899;28;20042;-75
2023/04/24 06:36:51;;;;;;;3.70;1.77;;;9.60;99.90;;;;;;4989231;28;20118;-75
2023/04/24 06:39:16;;;;;;;3.25;2.20;;;9.60;99.90;;;;;;4997352;28;20049;-75
2023/04/24 06:41:42;;;;;;;5.85;3.05;;;9.60;99.90;;;;;;5003467;28;20038;-75
2023/04/24 06:44:08;;;;;;;5.57;2.75;;;9.50;99.90;;;;;;4996517;28;20564;-75
2023/04/24 06:46:33;;;;;;;5.93;3.13;;;9.50;99.90;;;;;;4986287;28;20055;-75
2023/04/24 06:49:00;;;;;;;7.50;2.88;;;9.50;99.90;;;;;;5003118;28;20050;-75
2023/04/24 06:51:27;;;;;;;5.15;4.05;;;9.50;99.90;;;;;;5004819;28;20038;-75
2023/04/24 06:53:58;;;;;;;9.05;3.38;;;9.40;99.90;;;;;;5004282;28;20116;-75
2023/04/24 06:56:25;;;;;;;6.75;3.95;;;9.40;99.90;;;;;;5004978;28;20413;-75
2023/04/24 06:58:51;;;;;;;7.55;2.83;;;9.40;99.90;;;;;;5005141;28;20045;-74
2023/04/24 07:01:16;;;;;;;5.65;2.92;;;9.40;99.90;;;;;;5004215;28;20048;-75
2023/04/24 07:03:42;;;;;;;8.90;4.15;;;9.40;99.90;;;;;;5004878;28;20484;-75
2023/04/24 07:06:09;;;;;;;4.80;2.67;;;9.40;99.90;;;;;;5005013;28;20045;-74
2023/04/24 07:08:35;;;;;;;6.82;3.00;;;9.40;99.90;;;;;;5002132;28;20054;-75
2023/04/24 07:11:01;;;;;;;5.78;4.00;;;9.30;99.90;;;;;;4999810;28;20057;-75
2023/04/24 07:13:27;;;;;;;5.15;3.30;;;9.30;99.90;;;;;;4996262;28;20662;-75
2023/04/24 07:15:54;;;;;;;7.50;3.42;;;9.30;99.90;;;;;;5004735;28;20081;-75
2023/04/24 07:18:21;;;;;;;12.80;4.22;;;9.30;99.90;;;;;;4989707;28;20484;-76
2023/04/24 07:20:46;;;;;;;9.85;3.22;;;9.30;99.90;;;;;;4987425;28;20590;-75
2023/04/24 07:23:12;;;;;;;5.68;3.45;;;9.30;99.90;;;;;;4970669;28;20031;-76
2023/04/24 07:25:39;;;;;;;14.38;4.90;;;9.30;99.90;;;;;;4990261;28;20511;-76
2023/04/24 07:28:05;;;;;;;5.32;4.68;;;9.30;99.90;;;;;;4997655;28;20128;-76
2023/04/24 07:30:32;;;;;;;5.95;4.13;;;9.30;99.90;;;;;;4986919;28;20146;-77
2023/04/24 07:32:58;;;;;;;7.53;4.72;;;9.20;99.90;;;;;;4993670;28;20544;-76
2023/04/24 07:35:28;;;;;;;5.72;3.83;;;9.30;99.90;;;;;;4987205;28;20046;-76
2023/04/24 07:37:53;;;;;;;10.13;4.50;;;9.30;99.90;;;;;;4984625;28;20038;-77
2023/04/24 07:40:20;;;;;;;6.75;3.35;;;9.20;99.90;;;;;;4985952;28;20577;-76
2023/04/24 07:42:48;;;;;;;7.63;3.10;;;9.20;99.90;;;;;;4993489;28;20042;-76
2023/04/24 07:45:14;;;;;;;3.50;2.75;;;9.30;99.90;;;;;;5005868;28;20053;-76
2023/04/24 07:47:43;;;;;;;4.88;2.80;;;9.20;99.90;;;;;;4997886;28;20082;-76
2023/04/24 07:50:09;;;;;;;4.03;3.22;;;9.30;99.90;;;;;;4985449;28;20043;-76
2023/04/24 07:52:35;;;;;;;2.33;2.13;;;9.20;99.90;;;;;;4984538;28;20533;-76
2023/04/24 07:55:02;;;;;;;4.10;2.28;;;9.20;99.90;;;;;;4968353;28;20108;-76
2023/04/24 07:57:28;;;;;;;4.45;2.28;;;9.30;99.90;;;;;;4984136;28;20046;-76
2023/04/24 07:59:54;;;;;;;5.07;2.83;;;9.30;99.90;;;;;;4996044;28;20042;-76
2023/04/24 08:02:21;;;;;;;4.55;1.88;;;9.30;99.90;;;;;;4985760;28;20047;-76
2023/04/24 08:04:47;;;;;;;2.97;2.05;;;9.30;99.90;;;;;;4985487;28;20564;-76
2023/04/24 08:07:12;;;;;;;3.67;2.13;;;9.30;99.90;;;;;;4997726;28;20041;-76
2023/04/24 08:09:38;;;;;;;4.13;1.35;;;9.40;99.90;;;;;;4997619;28;20050;-76
2023/04/24 08:12:04;;;;;;;4.20;1.85;;;9.30;99.90;;;;;;5000816;28;20057;-76
2023/04/24 08:14:30;;;;;;;3.38;2.70;;;9.40;99.90;;;;;;4983834;28;20064;-75
2023/04/24 08:16:56;;;;;;;4.82;3.03;;;9.40;99.90;;;;;;4984414;28;20105;-76
2023/04/24 08:19:22;;;;;;;3.63;2.17;;;9.40;99.90;;;;;;4985020;28;20057;-76
2023/04/24 08:21:47;;;;;;;3.47;2.53;;;9.40;99.90;;;;;;4985462;28;20047;-76
2023/04/24 08:24:13;;;;;;;3.50;2.88;;;9.40;99.90;;;;;;4987653;28;20719;-76
2023/04/24 08:26:39;;;;;;;4.00;2.58;;;9.40;99.90;;;;;;4996124;28;20045;-76
2023/04/24 08:29:06;;;;;;;4.28;2.83;;;9.40;99.90;;;;;;5004265;28;20392;-76
2023/04/24 08:31:32;;;;;;;6.63;3.28;;;9.40;99.90;;;;;;4985068;28;20404;-76
2023/04/24 08:33:59;;;;;;;3.97;2.70;;;9.40;99.90;;;;;;4983618;28;20057;-76
2023/04/24 08:36:25;;;;;;;2.40;1.80;;;9.40;99.90;;;;;;4992682;28;20042;-76
2023/04/24 08:38:51;;;;;;;3.42;1.60;;;9.50;99.90;;;;;;4995452;28;20096;-76
2023/04/24 08:41:18;;;;;;;7.68;2.65;;;9.50;99.90;;;;;;4988095;28;20429;-79
2023/04/24 08:43:46;;;;;;;4.57;2.00;;;9.50;99.90;;;;;;4983337;28;20118;-76
2023/04/24 08:46:13;;;;;;;4.43;2.55;;;9.60;99.90;;;;;;4983190;28;20126;-78
2023/04/24 08:48:39;;;;;;;2.30;1.85;;;9.60;99.90;;;;;;4996675;28;20493;-77
2023/04/24 08:51:07;;;;;;;3.97;1.48;;;9.60;99.90;;;;;;5003403;28;20044;-77
2023/04/24 08:53:33;;;;;;;2.42;1.50;;;9.60;99.90;;;;;;4997605;28;20527;-76
2023/04/24 08:56:01;;;;;;;3.03;2.08;;;9.70;99.90;;;;;;4986649;28;20069;-77
2023/04/24 08:58:27;;;;;;;2.83;1.75;;;9.70;99.90;;;;;;5000270;28;20113;-77
2023/04/24 09:00:57;;;;;;;7.70;1.60;;;9.80;99.90;;;;;;4990287;28;20456;-77
2023/04/24 09:03:23;;;;;;;3.25;1.63;;;9.90;99.90;;;;;;4991205;28;20049;-77
2023/04/24 09:05:50;;;;;;;3.65;1.42;;;9.90;99.90;;;;;;4991365;28;20080;-76
2023/04/24 09:08:18;;;;;;;6.47;1.20;;;9.90;99.90;;;;;;4987328;28;20126;-76
2023/04/24 09:10:44;;;;;;;2.50;1.40;;;10.00;99.90;;;;;;4986240;28;20045;-76
2023/04/24 09:13:11;;;;;;;3.22;1.95;;;10.00;99.90;;;;;;4990108;28;20050;-77
2023/04/24 09:15:38;;;;;;;3.17;1.40;;;10.00;99.90;;;;;;4983858;28;20129;-77
2023/04/24 09:18:04;;;;;;;3.58;1.95;;;10.10;99.90;;;;;;4987172;28;20130;-78
2023/04/24 09:20:31;;;;;;;3.58;1.60;;;10.10;99.90;;;;;;4983044;28;20046;-78
2023/04/24 09:22:57;;;;;;;2.72;1.67;;;10.00;99.90;;;;;;4985554;28;20046;-78
2023/04/24 09:25:33;;;;;;;3.72;1.92;;;10.00;99.90;;;;;;4991882;28;20037;-78
2023/04/24 09:28:03;;;;;;;1.67;1.23;;;10.10;99.90;;;;;;4991823;28;20453;-78
2023/04/24 09:30:29;;;;;;;1.75;1.27;;;10.00;99.90;;;;;;4982791;28;20042;-78
2023/04/24 09:33:15;;;;;;;1.77;0.82;;;10.00;99.90;;;;;;4982691;28;20050;-78
2023/04/24 09:36:02;;;;;;;0.98;0.95;;;10.00;99.90;;;;;;4966815;28;20365;-77
2023/04/24 09:38:38;;;;;;;1.20;0.95;;;10.00;99.90;;;;;;4982694;28;20045;-77
2023/04/24 09:41:07;;;;;;;2.72;1.98;;;10.00;99.90;;;;;;4975950;28;20520;-77
2023/04/24 09:43:34;;;;;;;2.30;1.45;;;10.10;99.90;;;;;;4982343;28;20532;-77
2023/04/24 09:46:05;;;;;;;2.15;1.00;;;10.00;99.90;;;;;;5001556;28;20038;-78
2023/04/24 09:48:35;;;;;;;3.22;0.70;;;10.00;99.90;;;;;;4990296;28;20049;-78
2023/04/24 09:51:03;;;;;;;4.88;1.70;;;10.00;99.90;;;;;;4985066;28;20492;-77
2023/04/24 09:53:30;;;;;;;2.95;1.05;;;10.00;99.90;;;;;;4987923;28;20056;-78
2023/04/24 09:55:56;;;;;;;4.20;1.45;;;10.00;99.90;;;;;;4986100;28;20039;-78
2023/04/24 09:58:28;;;;;;;1.10;0.63;;;10.00;99.90;;;;;;4988317;28;20121;-77
2023/04/24 10:00:55;;;;;;;7.35;0.90;;;9.90;99.90;;;;;;4994382;28;20045;-77
2023/04/24 10:03:23;;;;;;;4.07;1.05;;;9.90;99.90;;;;;;4996939;28;20049;-77
2023/04/24 10:05:51;;;;;;;1.83;1.15;;;9.90;99.90;;;;;;5002998;28;20072;-77
2023/04/24 10:08:16;;;;;;;5.97;0.70;;;9.90;99.90;;;;;;4994332;28;20515;-77
2023/04/24 10:10:44;;;;;;;2.72;1.10;;;9.90;99.90;;;;;;4982363;28;20043;-78
2023/04/24 10:13:11;;;;;;;3.47;1.10;;;10.00;99.90;;;;;;4988511;28;20046;-77
2023/04/24 10:15:38;;;;;;;4.85;1.42;;;10.00;99.90;;;;;;4995728;28;20603;-78
2023/04/24 10:18:06;;;;;;;4.22;0.60;;;10.10;99.90;;;;;;5002568;28;20448;-78
2023/04/24 10:20:33;;;;;;;3.60;1.02;;;10.10;99.90;;;;;;4989119;28;20049;-78
2023/04/24 10:22:59;;;;;;;2.08;0.98;;;10.10;99.90;;;;;;4988935;28;20095;-78
2023/04/24 10:25:30;;;;;;;0.95;0.75;;;10.20;99.90;;;;;;4992494;28;20035;-78
2023/04/24 10:27:59;;;;;;;4.88;0.90;;;10.20;99.90;;;;;;4970385;28;20537;-78
2023/04/24 10:30:26;;;;;;;4.13;0.98;;;10.30;99.90;;;;;;5002452;28;20034;-78
2023/04/24 10:32:52;;;;;;;2.40;1.38;;;10.30;99.90;;;;;;5006093;28;20046;-77
2023/04/24 10:35:19;;;;;;;1.75;0.85;;;10.30;99.90;;;;;;5007085;28;20053;-78
2023/04/24 10:38:11;;;;;;;8.60;0.90;;;10.30;99.90;;;;;;5004455;28;20084;-78
2023/04/24 10:40:37;;;;;;;1.15;0.90;;;10.30;99.90;;;;;;4981003;28;20490;-77
2023/04/24 10:43:11;;;;;;;7.68;1.58;;;10.40;99.90;;;;;;4985705;28;20137;-77
2023/04/24 10:45:37;;;;;;;4.07;1.02;;;10.40;99.90;;;;;;4990705;28;20246;-77
2023/04/24 10:48:10;;;;;;;0.70;0.50;;;10.40;99.90;;;;;;4996101;28;20096;-77
2023/04/24 10:51:02;;;;;;;0.85;0.60;;;10.40;99.90;;;;;;4974108;28;20068;-77
2023/04/24 10:53:29;;;;;;;2.60;0.65;;;10.30;99.90;;;;;;4980947;28;20065;-77
2023/04/24 10:56:05;;;;;;;1.13;1.02;;;10.30;99.90;;;;;;4999892;28;20034;-77
2023/04/24 10:58:44;;;;;;;0.68;0.50;;;10.20;99.90;;;;;;4992569;28;20034;-77
2023/04/24 11:01:30;;;;;;;1.92;0.88;;;10.10;99.90;;;;;;4995694;28;20046;-77
2023/04/24 11:03:58;;;;;;;1.55;0.60;;;10.10;99.90;;;;;;4995335;28;20046;-77
2023/04/24 11:06:32;;;;;;;1.77;0.52;;;10.00;99.90;;;;;;4990817;28;20053;-77
2023/04/24 11:09:06;;;;;;;3.00;1.20;;;9.90;99.90;;;;;;4999375;28;20050;-77
2023/04/24 11:11:32;;;;;;;4.13;0.52;;;9.90;99.90;;;;;;4999906;28;20230;-77
2023/04/24 11:13:58;;;;;;;4.05;2.15;;;9.80;99.90;;;;;;4989184;28;20133;-77
2023/04/24 11:16:29;;;;;;;4.25;0.85;;;9.80;99.90;;;;;;4986312;28;20125;-76
2023/04/24 11:19:17;;;;;;;0.47;0.47;;;9.80;99.90;;;;;;4985045;28;20050;-77
2023/04/24 11:21:57;;;;;;;0.95;0.88;;;9.70;99.90;;;;;;4999339;28;20484;-75
2023/04/24 11:24:47;;;;;;;1.88;1.42;;;9.70;99.90;;;;;;4986299;28;20046;-75
2023/04/24 11:27:19;;;;;;;3.92;0.90;;;9.70;99.90;;;;;;4989322;28;20041;-77
2023/04/24 11:29:49;;;;;;;1.88;0.70;;;9.80;99.90;;;;;;4994355;28;20034;-77
2023/04/24 11:32:24;;;;;;;4.13;0.43;;;9.90;99.90;;;;;;4996234;28;20134;-77
2023/04/24 11:34:51;;;;;;;1.42;1.08;;;9.90;99.90;;;;;;4985620;28;20050;-77
2023/04/24 11:37:17;;;;;;;3.78;0.57;;;9.90;99.90;;;;;;4998730;28;20064;-76
2023/04/24 11:39:43;;;;;;;1.77;0.73;;;9.90;99.90;;;;;;4990653;28;20046;-77
2023/04/24 11:42:09;;;;;;;2.10;0.57;;;9.90;99.90;;;;;;4987695;28;20397;-76
2023/04/24 11:44:38;;;;;;;2.78;1.17;;;9.80;99.90;;;;;;4993266;28;20038;-77
2023/04/24 11:47:08;;;;;;;1.75;0.63;;;9.80;99.90;;;;;;4997233;28;20097;-77
2023/04/24 11:49:36;;;;;;;3.35;1.17;;;9.90;99.90;;;;;;4997308;28;20038;-77
2023/04/24 11:52:02;;;;;;;1.65;1.05;;;9.90;99.90;;;;;;4987289;28;20182;-77
2023/04/24 11:54:28;;;;;;;0.85;0.47;;;10.00;99.90;;;;;;4997072;28;20118;-77
2023/04/24 11:56:55;;;;;;;0.98;0.90;;;10.00;99.90;;;;;;4984776;28;20059;-76
2023/04/24 11:59:21;;;;;;;0.40;0.10;;;10.10;99.90;;;;;;4986322;28;20054;-77
2023/04/24 12:01:48;;;;;;;1.30;0.60;;;10.20;99.90;;;;;;4989419;28;20043;-77
2023/04/24 12:04:17;;;;;;;0.55;0.30;;;10.30;99.90;;;;;;4994162;28;20125;-77
2023/04/24 12:07:18;;;;;;;0.30;0.28;;;10.30;99.90;;;;;;5003908;28;20104;-77
2023/04/24 12:09:49;;;;;;;0.10;0.05;;;10.40;99.90;;;;;;4917243;29;20051;-78
2023/04/24 12:12:16;;;;;;;0.77;0.45;;;10.40;99.90;;;;;;4964119;28;20172;-77
2023/04/24 12:14:49;;;;;;;0.20;0.20;;;10.40;99.90;;;;;;5002669;28;20045;-78
2023/04/24 12:17:16;;;;;;;4.65;0.82;;;10.40;99.90;;;;;;4990481;28;20568;-79
2023/04/24 12:19:49;;;;;;;0.20;0.13;;;10.50;99.90;;;;;;4994918;28;20516;-77
2023/04/24 12:22:14;;;;;;;1.77;0.30;;;10.50;99.90;;;;;;4999765;28;20054;-78
2023/04/24 12:24:57;;;;;;;0.50;0.30;;;10.50;99.90;;;;;;5003051;28;20049;-77
2023/04/24 12:27:22;;;;;;;0.20;0.20;;;10.50;99.90;;;;;;4986380;28;20069;-76
2023/04/24 12:29:53;;;;;;;1.85;0.30;;;10.50;99.90;;;;;;4995633;28;20076;-77
2023/04/24 12:32:19;;;;;;;0.60;0.43;;;10.50;99.90;;;;;;4995325;28;20136;-77
2023/04/24 12:34:45;;;;;;;2.30;0.85;;;10.50;99.90;;;;;;4988101;28;20551;-77
2023/04/24 12:37:11;;;;;;;2.95;1.05;;;10.50;99.90;;;;;;4989400;28;20374;-77
2023/04/24 12:39:37;;;;;;;1.13;0.93;;;10.50;99.90;;;;;;4984766;28;20429;-77
2023/04/24 12:42:03;;;;;;;3.17;0.45;;;10.50;99.90;;;;;;4992431;28;20116;-77
2023/04/24 12:44:34;;;;;;;0.20;0.20;;;10.50;99.90;;;;;;4988194;28;20082;-77
2023/04/24 12:47:03;;;;;;;0.22;0.22;;;10.50;99.90;;;;;;4986739;28;20038;-77
2023/04/24 12:49:32;;;;;;;1.58;0.25;;;10.50;99.90;;;;;;4993672;28;20053;-77
2023/04/24 12:51:58;;;;;;;0.20;0.20;;;10.50;99.90;;;;;;4997815;28;20050;-78